createdAt,value
2019-01-31T00:01:11.329Z,365.60
2019-01-31T00:03:43.689Z,345.70
2019-01-31T00:06:27.611Z,312.70
2019-01-31T00:09:02.722Z,345.33
2019-01-31T00:11:37.480Z,355.43
2019-01-31T00:14:14.475Z,350.83
2019-01-31T00:17:08.361Z,348.07
2019-01-31T00:19:58.117Z,338.43
2019-01-31T00:22:49.331Z,336.67
2019-01-31T00:25:41.778Z,338.67
2019-01-31T00:28:25.618Z,359.57
2019-01-31T00:31:33.524Z,315.77
2019-01-31T00:34:14.190Z,319.43
2019-01-31T00:36:58.034Z,320.13
2019-01-31T00:39:46.379Z,303.57
2019-01-31T00:42:24.079Z,322.60
2019-01-31T00:45:07.997Z,284.27
2019-01-31T00:47:52.067Z,289.77
2019-01-31T00:50:27.104Z,280.63
2019-01-31T00:53:07.653Z,266.90
2019-01-31T00:55:39.634Z,250.47
2019-01-31T00:58:17.416Z,256.03
2019-01-31T01:00:55.217Z,242.23
2019-01-31T01:03:30.171Z,240.60
2019-01-31T01:06:11.198Z,250.43
2019-01-31T01:09:07.634Z,241.97
2019-01-31T01:11:46.710Z,234.57
2019-01-31T01:14:33.625Z,231.67
2019-01-31T01:17:35.754Z,217.90
2019-01-31T01:20:13.266Z,219.70
2019-01-31T01:22:50.578Z,236.27
2019-01-31T01:25:25.099Z,226.67
2019-01-31T01:27:59.929Z,255.23
2019-01-31T01:30:44.077Z,240.30
2019-01-31T01:33:33.765Z,284.43
2019-01-31T01:36:17.467Z,293.70
2019-01-31T01:38:54.871Z,327.97
2019-01-31T01:41:29.513Z,340.80
2019-01-31T01:44:03.935Z,311.10
2019-01-31T01:46:53.816Z,257.83
2019-01-31T01:49:32.377Z,235.07
2019-01-31T01:52:21.909Z,249.70
2019-01-31T01:55:02.662Z,230.77
2019-01-31T01:57:40.358Z,202.23
2019-01-31T02:00:14.779Z,206.93
2019-01-31T02:02:49.732Z,198.97
2019-01-31T02:05:45.456Z,193.33
2019-01-31T02:08:19.952Z,187.27
2019-01-31T02:11:00.744Z,178.93
2019-01-31T02:13:53.804Z,186.37
2019-01-31T02:16:31.345Z,180.80
2019-01-31T02:19:22.511Z,175.40
2019-01-31T02:21:54.370Z,168.50
2019-01-31T02:24:28.772Z,167.07
2019-01-31T02:27:23.192Z,156.47
2019-01-31T02:29:57.603Z,144.73
2019-01-31T02:33:05.923Z,133.50
2019-01-31T02:35:43.719Z,132.13
2019-01-31T02:38:24.548Z,130.90
2019-01-31T02:40:59.216Z,131.47
2019-01-31T02:43:36.889Z,126.33
2019-01-31T02:46:11.552Z,119.87
2019-01-31T02:48:46.677Z,120.73
2019-01-31T02:51:21.366Z,124.67
2019-01-31T02:54:05.352Z,119.30
2019-01-31T02:56:42.741Z,109.17
2019-01-31T02:59:14.601Z,117.23
2019-01-31T03:02:04.989Z,130.50
2019-01-31T03:04:36.962Z,129.30
2019-01-31T03:07:17.526Z,137.73
2019-01-31T03:10:11.820Z,147.27
2019-01-31T03:12:49.509Z,129.93
2019-01-31T03:15:21.351Z,144.00
2019-01-31T03:17:59.377Z,147.03
2019-01-31T03:20:46.298Z,151.43
2019-01-31T03:23:36.162Z,161.80
2019-01-31T03:26:32.203Z,155.03
2019-01-31T03:29:04.068Z,146.33
2019-01-31T03:31:56.813Z,133.10
2019-01-31T03:34:37.586Z,137.67
2019-01-31T03:37:12.309Z,136.23
2019-01-31T03:39:46.934Z,127.70
2019-01-31T03:42:38.148Z,123.53
2019-01-31T03:45:12.879Z,121.80
2019-01-31T03:47:50.345Z,123.93
2019-01-31T03:50:22.232Z,125.80
2019-01-31T03:53:10.047Z,120.80
2019-01-31T03:55:44.571Z,118.83
2019-01-31T03:58:28.432Z,133.87
2019-01-31T04:01:05.822Z,123.50
2019-01-31T04:03:55.715Z,122.03
2019-01-31T04:06:24.699Z,123.20
2019-01-31T04:08:53.385Z,119.83
2019-01-31T04:11:22.154Z,122.10
2019-01-31T04:13:50.833Z,122.93
2019-01-31T04:16:19.523Z,124.27
2019-01-31T04:18:48.439Z,126.07
2019-01-31T04:21:17.228Z,125.23
2019-01-31T04:23:45.916Z,138.63
2019-01-31T04:26:14.682Z,133.47
2019-01-31T04:28:43.494Z,149.30
2019-01-31T04:31:12.179Z,151.37
2019-01-31T04:33:41.070Z,164.67
2019-01-31T04:36:09.892Z,194.93
2019-01-31T04:38:38.750Z,178.43
2019-01-31T04:41:07.538Z,208.97
2019-01-31T04:43:36.202Z,211.80
2019-01-31T04:46:04.911Z,201.07
2019-01-31T04:48:33.703Z,229.23
2019-01-31T04:51:02.387Z,230.83
2019-01-31T04:53:31.175Z,209.00
2019-01-31T04:56:01.577Z,178.47
2019-01-31T04:58:30.265Z,172.33
2019-01-31T05:00:59.180Z,133.00
2019-01-31T05:03:27.970Z,135.50
2019-01-31T05:05:56.657Z,147.40
2019-01-31T05:08:25.453Z,130.13
2019-01-31T05:10:54.237Z,125.40
2019-01-31T05:13:22.911Z,117.07
2019-01-31T05:15:51.715Z,114.67
2019-01-31T05:18:20.606Z,88.17
2019-01-31T05:20:49.295Z,98.90
2019-01-31T05:23:18.180Z,135.67
2019-01-31T05:25:46.896Z,135.27
2019-01-31T05:28:15.756Z,135.47
2019-01-31T05:30:44.544Z,136.53
2019-01-31T05:33:13.419Z,150.27
2019-01-31T05:35:50.302Z,162.87
2019-01-31T05:38:19.103Z,169.03
2019-01-31T05:40:55.279Z,250.90
2019-01-31T05:43:18.914Z,208.40
2019-01-31T05:45:47.726Z,152.83
2019-01-31T05:48:16.515Z,171.77
2019-01-31T05:50:45.305Z,146.97
2019-01-31T05:53:14.089Z,137.37
2019-01-31T05:55:42.880Z,160.83
2019-01-31T05:58:11.667Z,135.60
2019-01-31T06:00:40.562Z,136.13
2019-01-31T06:03:11.500Z,115.87
2019-01-31T06:05:40.167Z,112.90
2019-01-31T06:08:08.982Z,103.77
2019-01-31T06:10:37.761Z,118.80
2019-01-31T06:13:06.654Z,128.27
2019-01-31T06:15:35.423Z,123.53
2019-01-31T06:18:04.129Z,94.50
2019-01-31T06:20:32.917Z,109.37
2019-01-31T06:23:01.690Z,138.03
2019-01-31T06:25:30.496Z,168.37
2019-01-31T06:27:59.284Z,179.17
2019-01-31T06:30:28.073Z,159.83
2019-01-31T06:32:57.067Z,136.73
2019-01-31T06:35:25.753Z,128.33
2019-01-31T06:37:54.748Z,140.33
2019-01-31T06:40:23.539Z,223.63
2019-01-31T06:42:52.315Z,136.07
2019-01-31T06:45:22.048Z,135.63
2019-01-31T06:47:50.823Z,108.87
2019-01-31T06:50:19.504Z,116.07
2019-01-31T06:52:48.406Z,117.00
2019-01-31T06:55:17.208Z,102.50
2019-01-31T06:57:45.984Z,116.83
2019-01-31T07:00:20.087Z,128.80
2019-01-31T07:02:48.984Z,121.73
2019-01-31T07:05:17.881Z,116.20
2019-01-31T07:07:46.669Z,150.23
2019-01-31T07:10:26.439Z,145.67
2019-01-31T07:12:55.307Z,178.17
2019-01-31T07:15:24.093Z,140.00
2019-01-31T07:17:52.887Z,122.23
2019-01-31T07:20:21.670Z,93.60
2019-01-31T07:22:50.444Z,137.63
2019-01-31T07:25:23.431Z,110.13
2019-01-31T07:27:52.155Z,92.43
2019-01-31T07:30:22.473Z,133.13
2019-01-31T07:32:51.124Z,105.73
2019-01-31T07:35:19.931Z,147.53
2019-01-31T07:37:48.594Z,134.43
2019-01-31T07:40:21.960Z,88.57
2019-01-31T07:42:50.808Z,96.80
2019-01-31T07:45:24.609Z,72.53
2019-01-31T07:47:53.402Z,90.67
2019-01-31T07:50:22.291Z,91.10
2019-01-31T07:52:51.078Z,92.47
2019-01-31T07:55:20.379Z,117.07
2019-01-31T07:57:49.167Z,112.90
2019-01-31T08:00:19.882Z,128.97
2019-01-31T08:02:48.676Z,136.60
2019-01-31T08:05:18.996Z,140.27
2019-01-31T08:07:48.217Z,117.70
2019-01-31T08:10:19.872Z,146.67
2019-01-31T08:12:48.661Z,102.73
2019-01-31T08:15:18.989Z,148.07
2019-01-31T08:17:47.876Z,123.53
2019-01-31T08:20:20.209Z,141.23
2019-01-31T08:22:49.040Z,137.27
2019-01-31T08:25:22.518Z,123.53
2019-01-31T08:27:51.824Z,129.90
2019-01-31T08:30:22.996Z,176.37
2019-01-31T08:32:51.754Z,182.80
2019-01-31T08:35:20.560Z,170.40
2019-01-31T08:37:49.248Z,190.80
2019-01-31T08:40:17.933Z,153.97
2019-01-31T08:42:46.722Z,187.10
2019-01-31T08:45:16.075Z,185.83
2019-01-31T08:47:44.894Z,151.70
2019-01-31T08:50:22.099Z,183.13
2019-01-31T08:52:50.802Z,145.47
2019-01-31T08:55:19.582Z,186.03
2019-01-31T08:57:48.468Z,196.57
2019-01-31T09:00:22.573Z,217.37
2019-01-31T09:02:51.351Z,185.63
2019-01-31T09:05:20.261Z,192.13
2019-01-31T09:07:49.049Z,181.03
2019-01-31T09:10:24.186Z,168.13
2019-01-31T09:12:52.958Z,196.47
2019-01-31T09:15:23.421Z,194.77
2019-01-31T09:17:52.296Z,193.07
2019-01-31T09:20:27.110Z,152.93
2019-01-31T09:23:26.643Z,149.50
2019-01-31T09:26:22.707Z,131.47
2019-01-31T09:29:18.911Z,156.67
2019-01-31T09:31:59.561Z,184.53
2019-01-31T09:34:52.193Z,205.47
2019-01-31T09:37:38.713Z,205.47
2019-01-31T09:40:19.463Z,194.87
2019-01-31T09:43:07.606Z,195.23
2019-01-31T09:46:01.890Z,170.33
2019-01-31T09:48:33.779Z,154.33
2019-01-31T09:51:27.235Z,142.90
2019-01-31T09:53:59.174Z,138.37
2019-01-31T09:56:34.858Z,132.23
2019-01-31T09:59:15.625Z,134.37
2019-01-31T10:02:04.484Z,132.07
2019-01-31T10:04:48.111Z,144.30
2019-01-31T10:07:41.076Z,164.50
2019-01-31T10:10:24.822Z,182.80
2019-01-31T10:13:14.729Z,174.50
2019-01-31T10:15:46.767Z,164.50
2019-01-31T10:18:21.501Z,137.70
2019-01-31T10:21:09.951Z,155.53
2019-01-31T10:23:50.614Z,143.07
2019-01-31T10:26:22.569Z,146.33
2019-01-31T10:29:15.532Z,136.83
2019-01-31T10:31:59.384Z,124.13
2019-01-31T10:34:43.520Z,122.47
2019-01-31T10:37:18.045Z,122.40
2019-01-31T10:40:16.711Z,141.80
2019-01-31T10:43:00.345Z,162.13
2019-01-31T10:45:40.927Z,159.57
2019-01-31T10:48:18.515Z,164.13
2019-01-31T10:51:14.870Z,132.33
2019-01-31T10:53:49.598Z,120.37
2019-01-31T10:56:24.222Z,125.53
2019-01-31T10:58:58.743Z,123.83
2019-01-31T11:01:33.778Z,123.13
2019-01-31T11:04:14.743Z,121.03
2019-01-31T11:06:58.607Z,105.47
2019-01-31T11:09:39.965Z,87.87
2019-01-31T11:12:14.691Z,81.80
2019-01-31T11:15:01.625Z,87.47
2019-01-31T11:17:36.453Z,90.50
2019-01-31T11:20:27.973Z,111.10
2019-01-31T11:22:59.915Z,116.33
2019-01-31T11:25:31.799Z,119.27
2019-01-31T11:28:24.754Z,99.70
2019-01-31T11:30:56.601Z,90.43
2019-01-31T11:33:50.901Z,81.30
2019-01-31T11:36:31.556Z,81.37
2019-01-31T11:39:11.314Z,76.07
2019-01-31T11:41:52.087Z,75.23
2019-01-31T11:44:38.795Z,72.70
2019-01-31T11:47:19.335Z,76.50
2019-01-31T11:50:08.014Z,83.37
2019-01-31T11:52:42.615Z,77.60
2019-01-31T11:55:17.469Z,70.60
2019-01-31T11:57:54.933Z,92.13
2019-01-31T12:00:25.275Z,79.57
2019-01-31T12:02:55.301Z,90.93
2019-01-31T12:05:24.268Z,84.60
2019-01-31T12:07:53.188Z,78.67
2019-01-31T12:10:22.079Z,75.10
2019-01-31T12:12:50.766Z,72.87
2019-01-31T12:15:19.536Z,70.60
2019-01-31T12:17:48.219Z,72.53
2019-01-31T12:20:17.337Z,74.40
2019-01-31T12:22:46.127Z,77.53
2019-01-31T12:25:14.917Z,73.67
2019-01-31T12:27:43.706Z,64.60
2019-01-31T12:30:21.815Z,72.97
2019-01-31T12:32:50.605Z,75.07
2019-01-31T12:35:19.502Z,77.53
2019-01-31T12:37:48.385Z,77.20
2019-01-31T12:40:18.569Z,76.50
2019-01-31T12:42:47.707Z,80.23
2019-01-31T12:45:18.555Z,80.00
2019-01-31T12:55:14.419Z,80.13
2019-01-31T13:00:59.492Z,69.47
2019-01-31T13:06:56.180Z,54.33
2019-01-31T13:12:53.752Z,50.13
2019-01-31T13:22:18.801Z,52.67
2019-01-31T13:28:31.708Z,59.70
2019-01-31T13:30:59.731Z,50.77
2019-01-31T13:33:29.021Z,46.53
2019-01-31T13:35:58.403Z,46.87
2019-01-31T13:38:27.107Z,51.73
2019-01-31T13:40:56.001Z,45.10
2019-01-31T13:43:25.097Z,49.57
2019-01-31T13:45:53.992Z,46.70
2019-01-31T13:48:22.877Z,51.83
2019-01-31T13:50:52.076Z,54.80
2019-01-31T13:53:20.890Z,70.73
2019-01-31T13:55:49.652Z,64.33
2019-01-31T13:58:18.442Z,53.67
2019-01-31T14:00:47.099Z,57.33
2019-01-31T14:03:15.918Z,60.60
2019-01-31T14:05:44.667Z,51.17
2019-01-31T14:08:13.317Z,55.07
2019-01-31T14:10:42.071Z,56.43
2019-01-31T14:13:11.716Z,48.40
2019-01-31T14:15:40.375Z,59.13
2019-01-31T14:18:09.108Z,60.20
2019-01-31T14:20:40.807Z,77.77
2019-01-31T14:23:09.533Z,96.60
2019-01-31T14:25:38.349Z,98.53
2019-01-31T14:28:07.057Z,105.20
2019-01-31T14:30:37.465Z,107.10
2019-01-31T14:33:08.906Z,110.87
2019-01-31T14:35:37.920Z,113.63
2019-01-31T14:38:06.766Z,103.67
2019-01-31T14:40:35.485Z,98.50
2019-01-31T14:43:04.211Z,99.17
2019-01-31T14:45:32.929Z,109.77
2019-01-31T14:48:01.613Z,114.27
2019-01-31T14:50:36.301Z,118.30
2019-01-31T14:53:05.163Z,123.00
2019-01-31T14:55:33.834Z,131.07
2019-01-31T14:58:02.740Z,135.43
2019-01-31T15:00:34.621Z,108.97
2019-01-31T15:03:06.086Z,122.30
2019-01-31T15:05:36.843Z,121.37
2019-01-31T15:08:05.706Z,121.00
2019-01-31T15:10:34.415Z,116.00
2019-01-31T15:13:03.307Z,116.53
2019-01-31T15:15:32.813Z,117.60
2019-01-31T15:18:01.496Z,107.90
2019-01-31T15:20:38.298Z,136.37
2019-01-31T15:23:05.731Z,106.40
2019-01-31T15:25:34.503Z,124.27
2019-01-31T15:28:03.413Z,126.23
2019-01-31T15:30:36.484Z,110.13
2019-01-31T15:33:08.042Z,117.53
2019-01-31T15:35:37.486Z,110.97
2019-01-31T15:38:09.739Z,125.63
2019-01-31T15:40:44.206Z,118.20
2019-01-31T15:43:13.177Z,82.87
2019-01-31T15:45:47.039Z,92.20
2019-01-31T15:48:16.045Z,118.40
2019-01-31T15:50:46.687Z,101.87
2019-01-31T15:53:15.571Z,114.30
2019-01-31T15:55:44.362Z,102.30
2019-01-31T15:58:14.173Z,101.07
2019-01-31T16:00:48.138Z,93.87
2019-01-31T16:03:18.492Z,110.87
2019-01-31T16:05:47.296Z,101.83
2019-01-31T16:08:16.392Z,94.90
2019-01-31T16:10:45.287Z,107.43
2019-01-31T16:13:14.211Z,122.17
2019-01-31T16:15:43.385Z,131.63
2019-01-31T16:18:13.173Z,120.70
2019-01-31T16:20:42.084Z,140.97
2019-01-31T16:23:11.793Z,98.33
2019-01-31T16:25:40.458Z,75.60
2019-01-31T16:28:09.275Z,88.07
2019-01-31T16:30:38.980Z,112.93
2019-01-31T16:33:07.857Z,123.30
2019-01-31T16:35:36.860Z,102.33
2019-01-31T16:38:05.571Z,104.33
2019-01-31T16:40:34.661Z,112.30
2019-01-31T16:43:03.432Z,118.83
2019-01-31T16:45:32.425Z,100.87
2019-01-31T16:48:01.214Z,94.00
2019-01-31T16:50:29.978Z,84.43
2019-01-31T16:52:58.995Z,118.23
2019-01-31T16:55:29.139Z,113.60
2019-01-31T16:57:58.296Z,91.07
2019-01-31T17:00:31.915Z,85.13
2019-01-31T17:03:00.709Z,95.77
2019-01-31T17:05:33.488Z,102.90
2019-01-31T17:08:02.377Z,96.70
2019-01-31T17:10:31.376Z,76.07
2019-01-31T17:13:00.155Z,81.80
2019-01-31T17:15:28.955Z,84.33
2019-01-31T17:17:57.751Z,87.23
2019-01-31T17:20:50.603Z,108.47
2019-01-31T17:23:19.588Z,110.77
2019-01-31T17:25:48.290Z,151.27
2019-01-31T17:28:17.478Z,171.63
2019-01-31T17:30:46.471Z,147.80
2019-01-31T17:33:15.259Z,108.90
2019-01-31T17:35:44.151Z,94.50
2019-01-31T17:38:12.982Z,94.47
2019-01-31T17:40:41.929Z,113.47
2019-01-31T17:43:10.827Z,96.57
2019-01-31T17:45:39.828Z,113.87
2019-01-31T17:48:08.592Z,104.20
2019-01-31T17:50:38.044Z,92.80
2019-01-31T17:53:06.801Z,94.23
2019-01-31T17:55:35.472Z,101.57
2019-01-31T17:58:04.270Z,130.90
2019-01-31T18:00:48.051Z,131.20
2019-01-31T18:03:16.905Z,124.07
2019-01-31T18:05:45.647Z,130.63
2019-01-31T18:08:14.324Z,119.97
2019-01-31T18:10:43.374Z,133.00
2019-01-31T18:13:12.044Z,118.03
2019-01-31T18:15:42.481Z,133.40
2019-01-31T18:18:11.083Z,131.70
2019-01-31T18:20:39.773Z,114.20
2019-01-31T18:23:11.411Z,127.30
2019-01-31T18:25:40.405Z,109.10
2019-01-31T18:28:09.199Z,131.30
2019-01-31T18:30:40.393Z,136.33
2019-01-31T18:33:09.129Z,106.13
2019-01-31T18:35:40.577Z,109.20
2019-01-31T18:38:09.369Z,134.93
2019-01-31T18:40:38.241Z,138.77
2019-01-31T18:43:07.046Z,136.77
2019-01-31T18:45:36.440Z,130.13
2019-01-31T18:48:06.532Z,141.13
2019-01-31T18:50:37.626Z,148.40
2019-01-31T18:53:06.319Z,115.13
2019-01-31T18:55:35.097Z,127.00
2019-01-31T18:58:03.779Z,129.73
2019-01-31T19:00:35.230Z,100.80
2019-01-31T19:03:04.082Z,109.77
2019-01-31T19:05:32.997Z,111.90
2019-01-31T19:08:01.902Z,137.40
2019-01-31T19:10:42.339Z,145.47
2019-01-31T19:13:01.115Z,163.00
2019-01-31T19:15:29.956Z,143.63
2019-01-31T19:18:05.936Z,114.97
2019-01-31T19:20:30.640Z,117.47
2019-01-31T19:23:00.908Z,120.47
2019-01-31T19:25:32.159Z,106.27
2019-01-31T19:28:00.200Z,109.90
2019-01-31T19:30:30.935Z,106.50
2019-01-31T19:33:00.017Z,110.50
2019-01-31T19:35:28.920Z,96.70
2019-01-31T19:38:02.241Z,99.37
2019-01-31T19:40:30.900Z,112.73
2019-01-31T19:42:59.810Z,110.93
2019-01-31T19:45:30.874Z,98.23
2019-01-31T19:48:00.150Z,107.23
2019-01-31T19:50:28.922Z,109.07
2019-01-31T19:52:57.697Z,127.80
2019-01-31T19:55:26.499Z,100.50
2019-01-31T20:01:23.837Z,111.73
2019-01-31T20:03:53.307Z,120.53
2019-01-31T20:06:22.290Z,101.20
2019-01-31T20:08:53.539Z,110.93
2019-01-31T20:11:21.907Z,113.00
2019-01-31T20:13:51.300Z,113.57
2019-01-31T20:16:28.514Z,83.43
2019-01-31T20:18:50.935Z,91.23
2019-01-31T20:21:21.573Z,108.10
2019-01-31T20:23:50.353Z,125.27
2019-01-31T20:26:20.168Z,140.10
2019-01-31T20:28:49.263Z,121.83
2019-01-31T20:31:18.462Z,120.73
2019-01-31T20:33:47.250Z,129.60
2019-01-31T20:36:16.141Z,146.23
2019-01-31T20:39:12.637Z,137.37
2019-01-31T20:41:37.176Z,140.60
2019-01-31T20:44:05.911Z,103.60
2019-01-31T20:46:40.245Z,116.80
2019-01-31T20:49:11.414Z,144.50
2019-01-31T20:51:40.210Z,175.47
2019-01-31T20:54:35.676Z,182.20
2019-01-31T20:57:10.101Z,156.20
2019-01-31T20:59:37.348Z,133.07
2019-01-31T21:02:06.293Z,123.40
2019-01-31T21:04:37.221Z,182.03
2019-01-31T21:07:05.797Z,209.70
2019-01-31T21:12:34.109Z,167.17
2019-01-31T21:15:02.900Z,181.13
2019-01-31T21:17:31.583Z,135.57
2019-01-31T21:20:00.555Z,137.33
2019-01-31T21:22:43.719Z,135.33
2019-01-31T21:25:18.705Z,137.27
2019-01-31T21:27:49.299Z,103.57
2019-01-31T21:30:26.865Z,122.73
2019-01-31T21:33:28.676Z,110.53
2019-01-31T21:35:58.930Z,107.50
2019-01-31T21:38:29.089Z,112.37
2019-01-31T21:40:57.848Z,108.73
2019-01-31T21:43:26.715Z,122.40
2019-01-31T21:45:57.271Z,120.37
2019-01-31T21:48:26.165Z,130.27
2019-01-31T21:50:55.271Z,135.90
2019-01-31T21:53:24.164Z,98.83
2019-01-31T21:55:53.165Z,84.17
2019-01-31T21:58:22.056Z,76.70
2019-01-31T22:00:51.367Z,87.10
2019-01-31T22:03:20.422Z,87.33
2019-01-31T22:05:49.242Z,100.10
2019-01-31T22:08:18.279Z,99.30
2019-01-31T22:10:47.337Z,120.30
2019-01-31T22:13:16.752Z,113.40
2019-01-31T22:15:46.430Z,107.93
2019-01-31T22:18:17.886Z,86.93
2019-01-31T22:20:49.150Z,77.93
2019-01-31T22:23:18.678Z,99.07
2019-01-31T22:25:47.373Z,114.90
2019-01-31T22:28:16.099Z,116.30
2019-01-31T22:30:47.817Z,109.93
2019-01-31T22:33:16.631Z,91.87
2019-01-31T22:35:45.380Z,106.83
2019-01-31T22:38:14.255Z,103.07
2019-01-31T22:40:43.018Z,108.03
2019-01-31T22:43:11.890Z,105.70
2019-01-31T22:45:40.916Z,102.00
2019-01-31T22:48:11.258Z,78.63
2019-01-31T22:50:40.133Z,99.03
2019-01-31T22:53:09.106Z,74.40
2019-01-31T22:55:37.915Z,87.67
2019-01-31T22:58:06.864Z,100.63
2019-01-31T23:00:58.839Z,107.10
2019-01-31T23:03:28.449Z,101.87
2019-01-31T23:05:58.873Z,95.40
2019-01-31T23:08:27.713Z,88.10
2019-01-31T23:10:56.396Z,83.80
2019-01-31T23:13:25.139Z,106.40
2019-01-31T23:15:53.911Z,116.33
2019-01-31T23:18:22.614Z,119.90
2019-01-31T23:20:51.404Z,106.37
2019-01-31T23:23:20.400Z,109.67
2019-01-31T23:25:49.185Z,109.10
2019-01-31T23:28:17.980Z,112.83
2019-01-31T23:30:46.763Z,107.67
2019-01-31T23:33:15.642Z,101.13
2019-01-31T23:35:44.562Z,98.77
2019-01-31T23:38:13.442Z,105.07
2019-01-31T23:40:42.207Z,105.73
2019-01-31T23:43:11.017Z,106.27
2019-01-31T23:45:40.010Z,117.23
2019-01-31T23:48:08.796Z,112.67
2019-01-31T23:50:37.689Z,117.87
2019-01-31T23:53:06.477Z,119.43
2019-01-31T23:55:35.163Z,111.13
2019-01-31T23:58:03.938Z,117.83
